Stations météo

réclame
Mon MeteoGroup
Nieuw Beerta aws, Pays-Bas (6286): Température de l'air & dewpoint: 18.02.2018 22:00:00 - 24.02.2018 22:00:00 (CET)Nieuw Beerta aws, Pays-Bas (6286): Température de l'air 5cm & Température de l'air -5cm: 18.02.2018 22:00:00 - 24.02.2018 22:00:00 (CET)Nieuw Beerta aws, Pays-Bas (6286): Température de l'air -20cm & Température de l'air -100cm: 18.02.2018 22:00:00 - 24.02.2018 22:00:00 (CET)Nieuw Beerta aws, Pays-Bas (6286): Vitesse du vent & gusts: 18.02.2018 22:00:00 - 24.02.2018 22:00:00 (CET)Nieuw Beerta aws, Pays-Bas (6286): Direction du vent: 18.02.2018 22:00:00 - 24.02.2018 22:00:00 (CET)Nieuw Beerta aws, Pays-Bas (6286): Quantités de précipitations: 18.02.2018 22:00:00 - 24.02.2018 22:00:00 (CET)
Date & Time tt [°C] td [°C] tt 5cm [°C] tt -5cm [°C] tt -20cm [°C] tt -100cm [°C] ff [km/h] ff [knt] fx [km/h] fx [knt] dd rr [mm]
24.02.2018 22:00:00 -2,3 -8,1 -2,9 0,2 0,9 4,9 22 12 32 18 ENE 0,0
24.02.2018 21:00:00 -2,1 -7,4 -2,6 0,2 0,9 4,9 18 10 32 18 ENE 0,0
24.02.2018 20:00:00 -1,2 -7,3 -1,9 0,2 0,9 4,9 22 12 36 19 ENE 0,0
24.02.2018 19:00:00 -0,4 -7,5 -0,9 0,2 0,9 4,9 29 16 36 19 ENE 0,0
24.02.2018 18:00:00 0,3 -6,8 -0,3 0,2 0,9 4,9 22 12 36 19 ENE 0,0
24.02.2018 17:00:00 1,3 -6,8 0,9 0,2 0,9 4,9 25 14 43 23 ENE 0,0
24.02.2018 16:00:00 2,1 -5,4 2,1 0,2 0,9 4,9 29 16 40 21 ENE 0,0
24.02.2018 15:00:00 2,3 -4,4 2,8 0,2 0,9 4,9 29 16 47 25 E 0,0
24.02.2018 14:00:00 1,8 -3,5 2,5 0,2 1,0 4,9 32 18 47 25 E 0,0
24.02.2018 13:00:00 2,3 -3,6 3,0 0,2 1,0 4,9 36 19 47 25 E 0,0
24.02.2018 12:00:00 1,1 -3,6 1,6 0,2 1,0 4,9 29 16 47 25 E 0,0
24.02.2018 11:00:00 0,5 -3,8 0,8 0,2 1,0 4,9 32 18 58 31 E 0,0
24.02.2018 10:00:00 -0,4 -4,3 -0,1 0,2 1,0 4,9 36 19 47 25 E 0,0
24.02.2018 09:00:00 -1,1 -4,8 -1,7 0,2 1,0 4,9 25 14 40 21 E 0,0
24.02.2018 08:00:00 -3,5 -7,8 -3,9 0,2 1,0 4,9 25 14 36 19 E 0,0
24.02.2018 07:00:00 -3,9 -8,4 -4,3 0,3 1,0 4,9 22 12 32 18 ENE 0,0
24.02.2018 06:00:00 -4,0 -8,2 -4,3 0,3 1,0 4,9 22 12 32 18 E 0,1
24.02.2018 05:00:00 -3,7 -8,2 -4,3 0,3 1,1 4,9 22 12 32 18 E 0,0
24.02.2018 04:00:00 -3,9 -8,0 -4,3 0,3 1,1 4,9 22 12 29 16 E 0,0
24.02.2018 03:00:00 -3,6 -8,0 -4,1 0,3 1,1 4,9 22 12 29 16 E 0,0
24.02.2018 02:00:00 -3,3 -8,0 -3,8 0,4 1,1 4,9 22 12 29 16 ENE 0,0
24.02.2018 01:00:00 -3,0 -7,8 -3,6 0,4 1,1 4,9 22 12 29 16 E 0,0
24.02.2018 00:00:00 -2,4 -7,5 -2,9 0,4 1,1 4,9 25 14 32 18 ENE 0,0
23.02.2018 23:00:00 -2,4 -6,9 -3,0 0,4 1,1 4,9 22 12 25 14 ENE 0,0
23.02.2018 22:00:00 -1,8 -6,6 -2,3 0,5 1,2 4,9 22 12 29 16 E 0,0
23.02.2018 21:00:00 -1,3 -6,0 -1,9 0,5 1,2 4,9 22 12 29 16 ENE 0,0
23.02.2018 20:00:00 -1,4 -5,5 -1,9 0,6 1,2 4,9 18 10 29 16 ENE 0,0
23.02.2018 19:00:00 -0,8 -5,1 -1,3 0,6 1,2 4,9 18 10 25 14 ENE 0,0
23.02.2018 18:00:00 0,0 -5,0 -0,6 0,8 1,2 4,9 18 10 32 18 ENE 0,0
23.02.2018 17:00:00 0,9 -4,9 0,6 1,0 1,2 4,9 22 12 36 19 ENE 0,0
23.02.2018 16:00:00 1,6 -4,7 1,5 1,1 1,1 4,9 25 14 36 19 ENE 0,0
23.02.2018 15:00:00 1,6 -4,7 1,9 1,1 1,1 4,9 25 14 32 18 E 0,0
23.02.2018 14:00:00 2,2 -4,4 2,8 0,8 1,0 4,9 22 12 32 18 E 0,0
23.02.2018 13:00:00 1,8 -4,3 2,7 0,5 1,0 4,9 22 12 32 18 ENE 0,0
23.02.2018 12:00:00 0,8 -3,2 1,2 0,4 1,0 4,9 18 10 29 16 ENE 0,0
23.02.2018 11:00:00 0,6 -2,3 1,2 0,3 1,0 4,9 18 10 25 14 E 0,0
23.02.2018 10:00:00 0,4 -1,9 0,9 0,3 1,0 4,9 14 8 22 12 E 0,0
23.02.2018 09:00:00 -0,7 -2,1 -0,9 0,3 1,0 4,9 14 8 22 12 ENE 0,0
23.02.2018 08:00:00 -1,4 -2,8 -1,5 0,3 1,0 4,9 14 8 22 12 ENE 0,0
23.02.2018 07:00:00 -1,3 -2,8 -1,5 0,3 1,0 4,9 14 8 18 10 NE 0,0
23.02.2018 06:00:00 -1,5 -3,1 -1,7 0,3 1,1 4,9 14 8 18 10 NE 0,0
23.02.2018 05:00:00 -1,7 -3,0 -1,9 0,3 1,1 4,9 14 8 18 10 NE 0,0
23.02.2018 04:00:00 -2,4 -3,6 -2,7 0,3 1,1 4,9 11 6 14 8 NE 0,0
23.02.2018 03:00:00 -3,0 -4,0 -3,5 0,3 1,1 4,9 11 6 14 8 NE 0,0
23.02.2018 02:00:00 -2,6 -3,6 -3,0 0,3 1,1 4,9 14 8 14 8 NE 0,0
23.02.2018 01:00:00 -2,5 -3,5 -3,1 0,4 1,1 4,9 11 6 14 8 NE 0,0
23.02.2018 00:00:00 -1,4 -2,5 -2,0 0,4 1,1 4,9 11 6 22 12 ENE 0,0
22.02.2018 23:00:00 -1,1 -2,1 -1,6 0,4 1,1 4,9 11 6 18 10 ENE 0,0
22.02.2018 22:00:00 -0,5 -1,8 -1,1 0,4 1,1 4,9 14 8 18 10 NE 0,0
22.02.2018 21:00:00 -0,2 -1,5 -0,6 0,4 1,1 4,9 11 6 18 10 NE 0,0
22.02.2018 20:00:00 0,4 -1,3 0,2 0,4 1,1 4,9 11 6 14 8 NE 0,0
22.02.2018 19:00:00 0,5 -1,4 0,4 0,4 1,1 4,9 11 6 14 8 NE 0,0
22.02.2018 18:00:00 0,4 -1,2 0,2 0,4 1,1 4,9 11 6 11 6 NNE 0,0
22.02.2018 17:00:00 0,9 -1,2 0,9 0,4 1,1 5,0 11 6 11 6 NNE 0,0
22.02.2018 16:00:00 0,9 -1,4 0,9 0,3 1,1 5,0 4 2 7 4 NE 0,0
22.02.2018 15:00:00 1,1 -1,7 1,5 0,3 1,1 5,0 7 4 11 6 ESE 0,0
22.02.2018 14:00:00 1,0 -1,8 1,4 0,3 1,1 5,0 11 6 18 10 ESE 0,0
22.02.2018 13:00:00 1,0 -0,6 1,2 0,3 1,1 5,0 7 4 7 4 ENE 0,0
22.02.2018 12:00:00 0,5 -1,1 0,9 0,3 1,2 5,0 4 2 7 4 NE 0,0
22.02.2018 11:00:00 0,1 -1,4 0,4 0,3 1,2 5,0 4 2 11 6 ENE 0,0
22.02.2018 10:00:00 -0,3 -1,9 -0,4 0,3 1,2 5,0 4 2 7 4 ENE 0,0
22.02.2018 09:00:00 -2,0 -3,1 -2,4 0,4 1,2 5,0 7 4 11 6 NNE 0,0
22.02.2018 08:00:00 -4,4 -5,2 -5,2 0,4 1,2 5,0 7 4 11 6 ENE 0,0
22.02.2018 07:00:00 -4,2 -5,2 -5,0 0,4 1,2 5,0 7 4 11 6 NE 0,0
22.02.2018 06:00:00 -3,7 -4,9 -4,7 0,4 1,3 5,0 7 4 11 6 NE 0,0
22.02.2018 05:00:00 -3,8 -5,1 -4,8 0,4 1,3 5,0 11 6 11 6 NE 0,0
22.02.2018 04:00:00 -3,7 -5,2 -4,7 0,5 1,3 5,0 7 4 11 6 NE 0,0
22.02.2018 03:00:00 -3,4 -4,9 -4,4 0,5 1,3 5,0 11 6 14 8 ENE 0,0
22.02.2018 02:00:00 -2,9 -4,5 -3,5 0,5 1,4 5,0 11 6 14 8 NE 0,0
22.02.2018 01:00:00 -2,5 -4,1 -3,0 0,5 1,4 5,0 14 8 14 8 ENE 0,0
22.02.2018 00:00:00 -2,2 -4,1 -2,7 0,6 1,4 5,0 14 8 14 8 NE 0,0
21.02.2018 23:00:00 -2,2 -4,1 -2,9 0,6 1,4 5,0 11 6 14 8 NE 0,0
21.02.2018 22:00:00 -1,7 -3,6 -2,4 0,7 1,5 5,0 11 6 14 8 NE 0,0
21.02.2018 21:00:00 -1,3 -3,5 -2,0 0,8 1,5 5,0 14 8 14 8 NE 0,0
21.02.2018 20:00:00 -0,7 -3,1 -1,4 0,9 1,5 5,0 14 8 18 10 NE 0,0
21.02.2018 19:00:00 0,3 -2,3 -0,3 1,1 1,5 5,0 11 6 14 8 NE 0,0
21.02.2018 18:00:00 0,3 -2,3 -0,5 1,2 1,5 5,0 14 8 18 10 NE 0,0
21.02.2018 17:00:00 2,0 -2,2 1,3 1,4 1,4 5,0 14 8 25 14 NE 0,0
21.02.2018 16:00:00 2,8 -2,6 2,6 1,4 1,3 5,0 11 6 18 10 NE 0,0
21.02.2018 15:00:00 3,5 -2,0 3,5 1,2 1,3 5,0 11 6 18 10 NE 0,0
21.02.2018 14:00:00 3,3 -2,0 3,8 0,8 1,3 5,0 11 6 18 10 NE 0,0
21.02.2018 13:00:00 2,6 -2,1 3,5 0,5 1,3 5,0 11 6 18 10 NE 0,0
21.02.2018 12:00:00 1,6 -2,2 2,7 0,4 1,3 5,0 11 6 14 8 NNE 0,0
21.02.2018 11:00:00 0,6 -2,1 1,6 0,4 1,3 5,0 11 6 14 8 ENE 0,0
21.02.2018 10:00:00 -0,4 -2,1 -0,1 0,4 1,3 5,0 11 6 11 6 NE 0,0
21.02.2018 09:00:00 -2,4 -3,7 -3,1 0,5 1,4 5,0 4 2 7 4 ENE 0,0
21.02.2018 08:00:00 -3,6 -4,3 -5,7 0,5 1,4 5,0 4 2 7 4 N 0,0
21.02.2018 07:00:00 -3,5 -4,6 -4,9 0,5 1,4 5,0 7 4 11 6 NNE 0,0
21.02.2018 06:00:00 -3,8 -4,8 -4,6 0,6 1,5 5,0 7 4 11 6 ENE 0,0
21.02.2018 05:00:00 -2,7 -3,9 -3,4 0,6 1,5 5,0 11 6 11 6 NNE 0,0
21.02.2018 04:00:00 -2,5 -3,8 -3,1 0,6 1,5 5,0 11 6 14 8 NE 0,0
21.02.2018 03:00:00 -1,8 -3,4 -2,3 0,7 1,6 5,0 11 6 14 8 ENE 0,0
21.02.2018 02:00:00 -1,8 -3,1 -2,5 0,7 1,6 5,0 7 4 11 6 NNE 0,0
21.02.2018 01:00:00 -2,2 -3,6 -2,9 0,8 1,7 5,0 7 4 14 8 NE 0,0
21.02.2018 00:00:00 -0,8 -2,7 -1,4 0,8 1,7 5,0 14 8 18 10 NE 0,0
20.02.2018 23:00:00 -0,1 -2,1 -0,8 0,9 1,7 5,0 14 8 22 12 NNE 0,0
20.02.2018 22:00:00 0,1 -1,8 -0,7 1,0 1,8 5,0 14 8 18 10 NNE 0,0
20.02.2018 21:00:00 0,1 -1,5 -0,7 1,2 1,8 5,0 11 6 14 8 N 0,0
20.02.2018 20:00:00 0,3 -1,3 -1,0 1,4 1,8 5,0 11 6 14 8 N 0,0
20.02.2018 19:00:00 0,2 -2,1 -0,6 1,7 1,8 5,0 14 8 18 10 NE 0,0
20.02.2018 18:00:00 2,0 -1,4 1,0 2,0 1,7 5,0 14 8 25 14 ENE 0,0
20.02.2018 17:00:00 4,5 0,3 4,1 2,1 1,6 5,0 14 8 22 12 NE 0,0
20.02.2018 16:00:00 5,1 -0,2 5,0 2,2 1,5 5,0 14 8 22 12 NE 0,0
20.02.2018 15:00:00 5,4 -0,9 5,9 2,0 1,4 5,0 14 8 22 12 NE 0,0
20.02.2018 14:00:00 4,9 -1,0 5,9 1,4 1,3 5,0 7 4 14 8 NE 0,0
20.02.2018 13:00:00 3,9 -0,1 4,9 0,7 1,3 5,0 7 4 - - NNE 0,0
20.02.2018 12:00:00 2,7 -0,4 3,7 0,5 1,3 5,0 4 2 7 4 NNW 0,0
20.02.2018 11:00:00 1,8 -0,6 2,7 0,5 1,4 5,0 4 2 11 6 SW 0,0
20.02.2018 10:00:00 0,5 -1,0 0,3 0,5 1,4 5,0 7 4 7 4 E 0,0
20.02.2018 09:00:00 -0,6 -1,5 -0,8 0,5 1,4 5,0 4 2 11 6 NE 0,0
20.02.2018 08:00:00 -1,6 -2,4 -1,8 0,5 1,4 5,0 7 4 11 6 ENE 0,0
20.02.2018 07:00:00 -1,8 -2,6 -2,8 0,5 1,5 5,0 4 2 7 4 NNE 0,0
20.02.2018 06:00:00 -1,7 -2,3 -3,1 0,6 1,5 5,0 7 4 7 4 N 0,0
20.02.2018 05:00:00 -1,7 -2,4 -4,2 0,6 1,6 5,0 4 2 7 4 NNE 0,0
20.02.2018 04:00:00 -2,1 -2,8 -3,7 0,6 1,6 5,0 7 4 7 4 N 0,0
20.02.2018 03:00:00 -2,2 -3,0 -3,1 0,7 1,7 5,0 7 4 7 4 ENE 0,0
20.02.2018 02:00:00 -1,8 -2,5 -3,3 0,7 1,7 5,0 7 4 7 4 NNE 0,0
20.02.2018 01:00:00 -2,4 -3,1 -3,0 0,8 1,8 5,0 7 4 7 4 NE 0,0
20.02.2018 00:00:00 -1,3 -2,1 -2,9 0,9 1,8 5,0 4 2 7 4 ESE 0,0
19.02.2018 23:00:00 -0,9 -1,8 -3,2 1,0 1,9 5,0 4 2 7 4 ESE 0,0
19.02.2018 22:00:00 -0,5 -1,3 -3,4 1,2 2,0 5,1 4 2 4 2 NNE 0,0
19.02.2018 21:00:00 -0,1 -1,3 -2,6 1,4 2,0 5,1 0 0 4 2 N 0,0
19.02.2018 20:00:00 0,0 -1,1 -3,0 1,8 2,0 5,1 4 2 7 4 SE 0,0
19.02.2018 19:00:00 0,9 -1,0 -2,4 2,2 2,0 5,1 4 2 7 4 E 0,0
19.02.2018 18:00:00 2,5 -0,1 0,4 2,6 1,9 5,1 4 2 11 6 SSE 0,0
19.02.2018 17:00:00 4,3 0,7 4,0 2,8 1,8 5,1 7 4 14 8 SE 0,0
19.02.2018 16:00:00 4,9 0,4 5,6 2,7 1,6 5,1 11 6 18 10 SSE 0,0
19.02.2018 15:00:00 4,4 0,1 5,1 2,4 1,5 5,1 11 6 18 10 SSW 0,0
19.02.2018 14:00:00 3,8 -0,1 5,1 1,9 1,4 5,1 14 8 18 10 SSW 0,0
19.02.2018 13:00:00 2,9 -0,4 3,6 1,4 1,3 5,1 11 6 18 10 S 0,0
19.02.2018 12:00:00 1,8 -0,8 2,4 1,0 1,3 5,1 14 8 18 10 SSW 0,0
19.02.2018 11:00:00 1,3 -1,0 1,6 0,7 1,3 5,1 14 8 22 12 S 0,0
19.02.2018 10:00:00 1,0 -1,2 1,0 0,6 1,3 5,1 14 8 18 10 S 0,0
19.02.2018 09:00:00 0,6 -1,5 0,5 0,5 1,3 5,1 14 8 18 10 S 0,0
19.02.2018 08:00:00 0,3 -1,7 0,0 0,5 1,3 5,1 11 6 18 10 SSE 0,0
19.02.2018 07:00:00 0,4 -1,8 -0,1 0,5 1,3 5,1 14 8 22 12 S 0,0
19.02.2018 06:00:00 0,3 -1,9 -0,3 0,5 1,3 5,1 14 8 18 10 S 0,0
19.02.2018 05:00:00 0,5 -1,7 -0,1 0,6 1,3 5,1 14 8 18 10 S 0,0
19.02.2018 04:00:00 0,6 -1,4 -0,1 0,6 1,4 5,1 11 6 14 8 S 0,0
19.02.2018 03:00:00 0,7 -1,1 0,1 0,6 1,4 5,1 11 6 14 8 S 0,0
19.02.2018 02:00:00 0,7 -0,9 -0,1 0,6 1,4 5,1 11 6 14 8 S 0,0
19.02.2018 01:00:00 0,3 -1,0 -0,4 0,6 1,4 5,1 11 6 14 8 S 0,0
19.02.2018 00:00:00 0,7 -0,8 -0,1 0,7 1,5 5,1 11 6 14 8 S 0,0
18.02.2018 23:00:00 0,8 -1,0 -0,2 0,7 1,5 5,1 11 6 14 8 S 0,0
18.02.2018 22:00:00 0,9 -1,1 -0,3 0,8 1,5 5,1 11 6 18 10 S 0,0

tt = Température de l'air
td = dewpoint
tt 5cm = Température de l'air 5cm
tt -5cm = Température de l'air -5cm
tt -20cm = Température de l'air -20cm
tt -100cm = Température de l'air -100cm
ff = Vitesse du vent
fx = gusts
dd = Direction du vent
rr = Quantités de précipitations

stations d'obs. à proximité